Time;durP1;ratioP1;P1;durP2;ratioP2;P2;SDS_P1;SDS_P2;PMS_P1;PMS_P2;Temp;Humidity;BMP_temperature;BMP_pressure;BME280_temperature;BME280_humidity;BME280_pressure;Samples;Min_cycle;Max_cycle;Signal;HPM_P1;HPM_P2
2022/01/14 00:01:14;;;;;;;41.20;24.90;;;6.30;99.90;;;;;;636936;224;26570;-77
2022/01/14 00:03:42;;;;;;;37.07;24.00;;;6.10;99.90;;;;;;639593;224;26568;-77
2022/01/14 00:06:10;;;;;;;35.47;23.30;;;6.10;99.90;;;;;;637016;224;26572;-77
2022/01/14 00:08:37;;;;;;;35.47;24.80;;;6.10;99.90;;;;;;640185;222;26554;-77
2022/01/14 00:11:14;;;;;;;45.83;26.30;;;6.00;99.90;;;;;;646804;222;26583;-77
2022/01/14 00:13:46;;;;;;;41.40;24.60;;;5.90;99.90;;;;;;643166;221;26814;-77
2022/01/14 00:16:04;;;;;;;43.73;26.20;;;6.00;99.90;;;;;;638192;222;26523;-77
2022/01/14 00:18:31;;;;;;;44.50;24.83;;;6.10;99.90;;;;;;645049;222;26780;-76
2022/01/14 00:21:00;;;;;;;39.30;24.57;;;6.00;99.90;;;;;;637731;223;26819;-77
2022/01/14 00:23:30;;;;;;;46.23;26.23;;;6.00;99.90;;;;;;637446;223;27202;-77
2022/01/14 00:33:32;;;;;;;41.17;26.63;;;6.10;99.90;;;;;;641462;221;26576;-76
2022/01/14 00:36:00;;;;;;;43.87;26.20;;;6.20;99.90;;;;;;648280;221;26581;-76
2022/01/14 00:38:28;;;;;;;32.53;23.27;;;6.00;99.90;;;;;;643724;221;26573;-76
2022/01/14 00:40:55;;;;;;;43.57;25.77;;;6.00;99.90;;;;;;644279;222;26646;-76
2022/01/14 00:43:22;;;;;;;42.97;25.10;;;6.10;99.90;;;;;;641381;222;26568;-76
2022/01/14 00:45:51;;;;;;;47.77;25.73;;;6.20;99.90;;;;;;637381;224;26840;-77
2022/01/14 00:48:17;;;;;;;42.10;25.47;;;6.20;99.90;;;;;;641372;222;26593;-76
2022/01/14 00:50:44;;;;;;;37.90;25.07;;;6.20;99.90;;;;;;640822;221;26839;-77
2022/01/14 00:53:11;;;;;;;38.53;24.47;;;6.10;99.90;;;;;;639629;224;26594;-77
2022/01/14 00:55:48;;;;;;;33.20;23.13;;;6.20;99.90;;;;;;641423;222;26856;-77
2022/01/14 01:00:40;;;;;;;38.80;25.30;;;6.30;99.90;;;;;;642157;221;26826;-76
2022/01/14 01:03:07;;;;;;;43.57;25.47;;;6.20;99.90;;;;;;639638;224;26572;-77
2022/01/14 01:05:34;;;;;;;40.83;27.10;;;6.30;99.90;;;;;;637633;224;26944;-76
2022/01/14 01:08:07;;;;;;;46.67;25.70;;;6.50;99.90;;;;;;639390;224;26581;-77
2022/01/14 01:10:30;;;;;;;39.47;26.13;;;6.20;99.90;;;;;;641798;222;26906;-77
2022/01/14 01:13:07;;;;;;;40.63;26.33;;;6.20;99.90;;;;;;642423;222;26812;-77
2022/01/14 01:15:26;;;;;;;44.40;27.43;;;6.30;99.90;;;;;;636517;224;26583;-77
2022/01/14 01:17:54;;;;;;;39.63;24.93;;;6.20;99.90;;;;;;640392;224;26569;-77
2022/01/14 01:20:21;;;;;;;37.77;25.00;;;6.20;99.90;;;;;;643401;222;26610;-77
2022/01/14 01:22:48;;;;;;;44.20;25.87;;;6.20;99.90;;;;;;642717;222;26591;-77
2022/01/14 01:25:18;;;;;;;42.03;24.60;;;6.20;99.90;;;;;;641913;223;26800;-77
2022/01/14 01:27:44;;;;;;;43.63;26.03;;;6.20;99.90;;;;;;641311;224;26779;-76
2022/01/14 01:30:15;;;;;;;37.03;24.30;;;6.30;99.90;;;;;;641105;224;26874;-77
2022/01/14 01:32:39;;;;;;;38.13;24.60;;;6.30;99.90;;;;;;638981;224;26560;-77
2022/01/14 01:35:06;;;;;;;44.43;26.93;;;6.20;99.90;;;;;;640320;224;26820;-77
2022/01/14 01:37:33;;;;;;;38.37;25.20;;;6.20;99.90;;;;;;640545;224;27262;-77
2022/01/14 01:40:01;;;;;;;44.63;25.43;;;6.20;99.90;;;;;;640757;222;26533;-76
2022/01/14 01:42:30;;;;;;;41.13;25.30;;;6.20;99.90;;;;;;637251;222;26863;-77
2022/01/14 01:44:55;;;;;;;44.67;25.23;;;6.20;99.90;;;;;;640167;221;26567;-77
2022/01/14 01:47:23;;;;;;;43.23;25.60;;;6.30;99.90;;;;;;640603;222;27290;-77
2022/01/14 01:49:49;;;;;;;40.53;24.20;;;6.30;99.90;;;;;;647936;221;26570;-76
2022/01/14 01:52:17;;;;;;;38.90;25.13;;;6.50;99.90;;;;;;644543;221;26565;-77
2022/01/14 01:54:45;;;;;;;40.13;25.87;;;6.30;99.90;;;;;;643370;222;26584;-77
2022/01/14 01:57:13;;;;;;;41.00;26.57;;;6.20;99.90;;;;;;649541;221;26634;-77
2022/01/14 01:59:41;;;;;;;47.07;26.97;;;6.30;99.90;;;;;;649406;221;26531;-77
2022/01/14 02:02:08;;;;;;;40.07;24.77;;;6.40;99.90;;;;;;643296;222;26612;-77
2022/01/14 02:04:36;;;;;;;43.77;25.00;;;6.40;99.90;;;;;;638994;224;26584;-77
2022/01/14 02:07:03;;;;;;;49.70;27.70;;;6.40;99.90;;;;;;640402;224;26560;-77
2022/01/14 02:09:31;;;;;;;46.23;26.93;;;6.40;99.90;;;;;;646564;222;26610;-76
2022/01/14 02:11:57;;;;;;;42.90;24.67;;;6.40;99.90;;;;;;643929;222;26599;-77
2022/01/14 02:14:51;;;;;;;41.83;25.70;;;6.30;99.90;;;;;;638548;221;26824;-76
2022/01/14 02:17:15;;;;;;;42.57;25.00;;;6.50;99.90;;;;;;644249;222;26586;-76
2022/01/14 02:19:31;;;;;;;45.90;26.30;;;6.40;99.90;;;;;;639494;221;26570;-77
2022/01/14 02:27:00;;;;;;;45.97;26.80;;;6.50;99.90;;;;;;640367;224;26571;-77
2022/01/14 02:29:28;;;;;;;42.00;28.37;;;6.50;99.90;;;;;;639205;224;26571;-78
2022/01/14 02:31:55;;;;;;;48.53;26.87;;;6.50;99.90;;;;;;638636;219;26585;-77
2022/01/14 02:34:23;;;;;;;44.00;26.43;;;6.50;99.90;;;;;;645207;220;26562;-77
2022/01/14 02:36:50;;;;;;;53.03;28.33;;;6.30;99.90;;;;;;640297;221;26843;-78
2022/01/14 02:39:17;;;;;;;51.63;27.87;;;6.10;99.90;;;;;;646898;220;26519;-77
2022/01/14 02:41:44;;;;;;;42.67;26.23;;;6.20;99.90;;;;;;637923;221;27264;-77
2022/01/14 02:44:11;;;;;;;51.43;27.87;;;6.40;99.90;;;;;;638943;223;26799;-77
2022/01/14 02:46:40;;;;;;;52.90;26.60;;;6.30;99.90;;;;;;644553;222;26814;-77
2022/01/14 02:49:06;;;;;;;45.43;25.80;;;6.30;99.90;;;;;;647477;221;26606;-77
2022/01/14 02:51:33;;;;;;;45.17;25.87;;;6.30;99.90;;;;;;641997;222;26895;-77
2022/01/14 02:54:21;;;;;;;38.00;25.07;;;6.30;99.90;;;;;;644647;221;26567;-77
2022/01/14 02:56:43;;;;;;;51.80;24.80;;;6.70;99.90;;;;;;642459;222;26574;-77
2022/01/14 02:59:10;;;;;;;48.80;26.43;;;6.70;99.90;;;;;;647228;217;26807;-77
2022/01/14 03:01:37;;;;;;;54.77;28.07;;;6.40;99.90;;;;;;648234;221;26606;-80
2022/01/14 03:04:05;;;;;;;39.83;24.37;;;6.40;99.90;;;;;;637201;224;26822;-80
2022/01/14 03:06:32;;;;;;;44.13;25.10;;;6.70;99.90;;;;;;642193;222;26571;-80
2022/01/14 03:08:59;;;;;;;48.40;26.60;;;6.70;99.90;;;;;;649098;221;26888;-80
2022/01/14 03:11:29;;;;;;;46.93;26.63;;;6.90;99.90;;;;;;638783;221;26614;-80
2022/01/14 03:13:57;;;;;;;54.10;26.73;;;6.60;99.90;;;;;;636905;224;26890;-80
2022/01/14 03:16:25;;;;;;;49.13;26.43;;;6.60;99.90;;;;;;638478;219;26540;-79
2022/01/14 03:18:55;;;;;;;47.73;27.47;;;6.60;99.90;;;;;;638238;224;26557;-79
2022/01/14 03:21:28;;;;;;;48.77;28.40;;;6.40;99.90;;;;;;636762;225;26626;-80
2022/01/14 03:24:03;;;;;;;45.57;27.23;;;6.40;99.90;;;;;;647567;221;26591;-80
2022/01/14 03:26:20;;;;;;;52.73;27.37;;;6.50;99.90;;;;;;636313;225;26590;-80
2022/01/14 03:28:47;;;;;;;46.67;26.67;;;6.50;99.90;;;;;;639070;224;26602;-80
2022/01/14 03:31:15;;;;;;;59.53;28.13;;;6.50;99.90;;;;;;640407;221;26552;-81
2022/01/14 03:33:42;;;;;;;50.67;28.27;;;6.50;99.90;;;;;;640403;224;26555;-82
2022/01/14 03:36:09;;;;;;;52.87;28.27;;;6.50;99.90;;;;;;639429;224;26520;-81
2022/01/14 03:38:37;;;;;;;50.90;30.00;;;6.40;99.90;;;;;;638864;224;26806;-80
2022/01/14 03:41:04;;;;;;;46.73;26.93;;;6.40;99.90;;;;;;640573;224;26549;-80
2022/01/14 03:43:31;;;;;;;52.40;30.87;;;6.50;99.90;;;;;;637413;224;26819;-80
2022/01/14 03:45:58;;;;;;;52.67;29.13;;;6.50;99.90;;;;;;637153;223;26565;-81
2022/01/14 03:48:25;;;;;;;52.23;28.90;;;6.70;99.90;;;;;;643215;221;27208;-80
2022/01/14 03:50:53;;;;;;;48.80;29.70;;;6.80;99.90;;;;;;648317;221;26543;-80
2022/01/14 03:53:20;;;;;;;59.00;29.73;;;6.60;99.90;;;;;;639800;222;26838;-80
2022/01/14 03:55:47;;;;;;;59.37;29.37;;;6.50;99.90;;;;;;649210;220;26573;-80
2022/01/14 03:58:14;;;;;;;49.50;28.30;;;6.40;99.90;;;;;;641332;222;27287;-80
2022/01/14 04:00:42;;;;;;;53.47;28.53;;;6.20;99.90;;;;;;647745;222;26536;-80
2022/01/14 04:03:10;;;;;;;50.40;28.93;;;6.20;99.90;;;;;;649861;221;26509;-80
2022/01/14 04:05:38;;;;;;;56.40;28.70;;;6.10;99.90;;;;;;638055;221;26581;-79
2022/01/14 04:08:06;;;;;;;52.47;29.40;;;6.00;99.90;;;;;;638266;224;26572;-80
2022/01/14 04:10:34;;;;;;;55.80;29.60;;;6.20;99.90;;;;;;643943;222;26600;-80
2022/01/14 04:13:11;;;;;;;59.47;29.37;;;6.20;99.90;;;;;;640303;222;26575;-80
2022/01/14 04:18:07;;;;;;;47.73;24.23;;;6.10;99.90;;;;;;640200;222;26614;-80
2022/01/14 04:20:34;;;;;;;47.53;27.37;;;5.80;99.90;;;;;;642248;221;26584;-80
2022/01/14 04:23:01;;;;;;;50.47;28.33;;;5.70;99.90;;;;;;643899;222;27208;-80
2022/01/14 04:25:28;;;;;;;44.73;26.47;;;5.80;99.90;;;;;;641383;222;26562;-81
2022/01/14 04:27:55;;;;;;;52.63;28.60;;;5.90;99.90;;;;;;645530;221;26833;-80
2022/01/14 04:30:23;;;;;;;44.80;27.10;;;5.70;99.90;;;;;;637365;222;26583;-80
2022/01/14 04:32:50;;;;;;;50.00;26.30;;;5.60;99.90;;;;;;640252;224;26802;-80
2022/01/14 04:35:18;;;;;;;50.63;28.60;;;5.80;99.90;;;;;;638532;224;26584;-80
2022/01/14 04:37:46;;;;;;;46.60;27.63;;;6.00;99.90;;;;;;636898;222;26587;-80
2022/01/14 04:40:14;;;;;;;46.23;27.27;;;6.10;99.90;;;;;;646433;221;26617;-80
2022/01/14 04:42:43;;;;;;;46.00;27.50;;;6.10;99.90;;;;;;646103;221;26512;-78
2022/01/14 04:45:11;;;;;;;53.87;28.00;;;6.10;99.90;;;;;;636935;223;26841;-80
2022/01/14 04:47:44;;;;;;;50.53;27.30;;;6.30;99.90;;;;;;638821;221;26779;-80
2022/01/14 04:50:13;;;;;;;51.03;28.03;;;6.00;99.90;;;;;;646832;222;26558;-80
2022/01/14 04:52:41;;;;;;;48.23;28.60;;;6.00;99.90;;;;;;647067;222;26589;-80
2022/01/14 04:55:08;;;;;;;44.53;26.77;;;5.90;99.90;;;;;;641202;218;27371;-80
2022/01/14 04:57:36;;;;;;;49.40;27.03;;;5.90;99.90;;;;;;637065;223;26558;-79
2022/01/14 05:00:04;;;;;;;51.70;27.03;;;6.00;99.90;;;;;;646959;221;26607;-79
2022/01/14 05:02:32;;;;;;;45.77;26.83;;;5.90;99.90;;;;;;639201;224;26525;-80
2022/01/14 05:05:00;;;;;;;45.37;26.20;;;6.10;99.90;;;;;;641315;223;26560;-79
2022/01/14 05:07:28;;;;;;;44.53;27.67;;;6.30;99.90;;;;;;638760;219;26572;-79
2022/01/14 05:12:40;;;;;;;46.77;29.53;;;6.30;99.90;;;;;;640098;221;26812;-79
2022/01/14 05:15:07;;;;;;;50.40;29.07;;;6.10;99.90;;;;;;641838;222;26567;-79
2022/01/14 05:17:34;;;;;;;45.93;28.93;;;6.00;99.90;;;;;;639904;224;26811;-80
2022/01/14 05:20:02;;;;;;;45.70;27.00;;;6.00;99.90;;;;;;646921;222;26631;-80
2022/01/14 05:22:30;;;;;;;46.90;25.67;;;6.10;99.90;;;;;;644061;222;26864;-79
2022/01/14 05:24:57;;;;;;;43.33;26.90;;;6.00;99.90;;;;;;638841;224;26571;-80
2022/01/14 05:27:25;;;;;;;43.17;27.33;;;6.00;99.90;;;;;;645224;222;26569;-80
2022/01/14 05:29:53;;;;;;;46.03;26.97;;;5.80;99.90;;;;;;641344;222;26549;-79
2022/01/14 05:32:22;;;;;;;44.60;25.33;;;5.80;99.90;;;;;;642370;222;26569;-79
2022/01/14 05:34:49;;;;;;;43.10;26.07;;;6.00;99.90;;;;;;642537;222;26576;-79
2022/01/14 05:37:16;;;;;;;44.80;27.70;;;6.00;99.90;;;;;;636969;224;26582;-80
2022/01/14 05:39:43;;;;;;;43.80;26.67;;;5.90;99.90;;;;;;645179;222;26596;-80
2022/01/14 05:42:10;;;;;;;58.97;30.37;;;5.80;99.90;;;;;;647732;222;26766;-80
2022/01/14 05:44:38;;;;;;;49.83;27.50;;;5.90;99.90;;;;;;643722;222;26571;-80
2022/01/14 05:47:05;;;;;;;46.37;28.67;;;5.90;99.90;;;;;;642531;219;26836;-80
2022/01/14 05:49:32;;;;;;;49.77;28.57;;;5.80;99.90;;;;;;647247;222;26577;-80
2022/01/14 05:51:59;;;;;;;57.00;29.97;;;5.70;99.90;;;;;;640621;222;27067;-80
2022/01/14 05:54:26;;;;;;;47.93;28.73;;;5.70;99.90;;;;;;639798;222;26607;-80
2022/01/14 05:56:54;;;;;;;47.43;25.53;;;6.00;99.90;;;;;;642109;221;26918;-80
2022/01/14 05:59:21;;;;;;;44.37;28.27;;;5.90;99.90;;;;;;639180;224;26576;-80
2022/01/14 06:01:49;;;;;;;45.43;28.10;;;6.30;99.90;;;;;;640202;224;26813;-80
2022/01/14 06:04:16;;;;;;;44.47;26.67;;;6.30;99.90;;;;;;636901;224;26593;-79
2022/01/14 06:06:44;;;;;;;45.40;28.70;;;6.30;99.90;;;;;;636959;224;26575;-80
2022/01/14 06:09:12;;;;;;;50.43;27.67;;;6.20;99.90;;;;;;639099;222;26587;-80
2022/01/14 06:11:40;;;;;;;45.77;27.00;;;6.30;99.90;;;;;;642025;223;26587;-79
2022/01/14 06:14:08;;;;;;;46.10;28.57;;;6.20;99.90;;;;;;638703;219;26517;-80
2022/01/14 06:16:35;;;;;;;48.20;28.47;;;6.20;99.90;;;;;;641313;223;26587;-80
2022/01/14 06:19:02;;;;;;;57.33;32.60;;;6.30;99.90;;;;;;639286;222;26550;-79
2022/01/14 06:21:29;;;;;;;56.60;30.30;;;6.30;99.90;;;;;;644898;222;26793;-82
2022/01/14 06:23:57;;;;;;;55.27;31.37;;;6.00;99.90;;;;;;646742;221;26518;-79
2022/01/14 06:26:25;;;;;;;57.90;29.77;;;6.10;99.90;;;;;;638491;224;26785;-80
2022/01/14 06:28:52;;;;;;;59.27;31.17;;;6.10;99.90;;;;;;643845;222;26801;-80
2022/01/14 06:31:20;;;;;;;62.70;29.67;;;6.00;99.90;;;;;;643595;222;26597;-79
2022/01/14 06:33:46;;;;;;;62.90;32.60;;;6.00;99.90;;;;;;642393;221;26942;-80
2022/01/14 06:36:13;;;;;;;63.83;33.07;;;5.90;99.90;;;;;;639956;222;26585;-79
2022/01/14 06:38:41;;;;;;;67.00;32.60;;;5.90;99.90;;;;;;640749;222;27118;-79
2022/01/14 06:41:08;;;;;;;61.97;32.93;;;5.80;99.90;;;;;;639561;221;26601;-79
2022/01/14 06:43:35;;;;;;;66.80;33.27;;;5.70;99.90;;;;;;640185;222;26841;-80
2022/01/14 06:46:03;;;;;;;67.10;33.87;;;5.90;99.90;;;;;;642092;221;26588;-80
2022/01/14 06:48:31;;;;;;;70.07;32.07;;;6.00;99.90;;;;;;638953;222;26570;-80
2022/01/14 06:50:59;;;;;;;68.23;33.87;;;5.80;99.90;;;;;;636902;224;26597;-80
2022/01/14 06:53:27;;;;;;;68.50;33.93;;;5.90;99.90;;;;;;636809;225;26601;-80
2022/01/14 06:55:54;;;;;;;69.53;34.70;;;5.90;99.90;;;;;;637266;221;26605;-81
2022/01/14 06:58:27;;;;;;;69.00;34.67;;;5.80;99.90;;;;;;643941;221;26574;-80
2022/01/14 07:00:55;;;;;;;60.37;33.13;;;5.70;99.90;;;;;;631591;226;26792;-80
2022/01/14 07:03:21;;;;;;;62.77;32.40;;;5.60;99.90;;;;;;645201;221;26520;-81
2022/01/14 07:05:49;;;;;;;70.50;33.57;;;5.60;99.90;;;;;;644587;222;26873;-81
2022/01/14 07:08:16;;;;;;;58.40;33.10;;;5.60;99.90;;;;;;637417;224;26851;-82
2022/01/14 07:10:44;;;;;;;57.90;31.13;;;6.10;99.90;;;;;;637186;224;26624;-80
2022/01/14 07:13:12;;;;;;;66.73;33.37;;;6.10;99.90;;;;;;639181;224;26588;-80
2022/01/14 07:15:40;;;;;;;53.73;29.17;;;6.20;99.90;;;;;;641849;222;26596;-80
2022/01/14 07:18:09;;;;;;;51.77;28.03;;;6.20;99.90;;;;;;647037;222;26588;-80
2022/01/14 07:20:35;;;;;;;52.80;28.53;;;6.20;99.90;;;;;;640765;222;26591;-80
2022/01/14 07:23:02;;;;;;;46.20;26.97;;;6.20;99.90;;;;;;641351;221;26570;-80
2022/01/14 07:25:29;;;;;;;53.30;27.23;;;6.10;99.90;;;;;;643767;221;27184;-80
2022/01/14 07:27:57;;;;;;;50.07;27.67;;;6.20;99.90;;;;;;640072;223;26587;-80
2022/01/14 07:30:24;;;;;;;45.97;25.17;;;6.10;99.90;;;;;;638444;223;26863;-80
2022/01/14 07:32:52;;;;;;;48.27;25.37;;;6.30;99.90;;;;;;638846;224;26582;-80
2022/01/14 07:35:18;;;;;;;47.47;25.87;;;6.30;99.90;;;;;;638809;224;27096;-80
2022/01/14 07:37:45;;;;;;;46.20;24.60;;;6.20;99.90;;;;;;639136;223;26562;-80
2022/01/14 07:40:13;;;;;;;44.03;23.73;;;6.30;99.90;;;;;;639929;224;27340;-79
2022/01/14 07:42:41;;;;;;;45.43;24.80;;;6.30;99.90;;;;;;637858;224;26578;-81
2022/01/14 07:45:08;;;;;;;41.67;24.03;;;6.10;99.90;;;;;;639723;224;27343;-79
2022/01/14 07:47:36;;;;;;;39.97;23.83;;;6.10;99.90;;;;;;638898;224;26562;-80
2022/01/14 07:50:04;;;;;;;46.93;24.63;;;6.10;99.90;;;;;;645138;222;26589;-81
2022/01/14 07:52:31;;;;;;;37.43;23.77;;;6.10;99.90;;;;;;639145;222;26561;-80
2022/01/14 07:54:59;;;;;;;37.17;22.93;;;5.90;99.90;;;;;;645210;222;26565;-80
2022/01/14 07:57:27;;;;;;;41.03;24.07;;;5.90;99.90;;;;;;638702;224;26565;-79
2022/01/14 07:59:55;;;;;;;38.10;22.70;;;6.00;99.90;;;;;;639958;222;26577;-79
2022/01/14 08:02:22;;;;;;;37.40;22.83;;;6.10;99.90;;;;;;639843;224;26565;-79
2022/01/14 08:04:49;;;;;;;35.63;22.00;;;5.80;99.90;;;;;;647789;216;26558;-77
2022/01/14 08:07:22;;;;;;;42.10;24.07;;;6.00;99.90;;;;;;638272;224;26801;-78
2022/01/14 08:09:43;;;;;;;45.93;22.90;;;6.10;99.90;;;;;;639787;224;26560;-79
2022/01/14 08:12:12;;;;;;;45.30;23.43;;;6.10;99.90;;;;;;638248;224;26917;-82
2022/01/14 08:14:38;;;;;;;41.37;22.17;;;6.00;99.90;;;;;;639900;224;26480;-82
2022/01/14 08:17:05;;;;;;;40.97;23.47;;;5.90;99.90;;;;;;637183;221;26824;-81
2022/01/14 08:19:33;;;;;;;39.00;22.20;;;6.10;99.90;;;;;;638387;221;26587;-80
2022/01/14 08:22:02;;;;;;;41.27;23.63;;;6.30;99.90;;;;;;641775;221;26617;-81
2022/01/14 08:24:29;;;;;;;44.47;22.87;;;6.20;99.90;;;;;;638768;224;26562;-81
2022/01/14 08:26:57;;;;;;;45.33;21.83;;;6.40;99.90;;;;;;637802;224;26563;-78
2022/01/14 08:29:25;;;;;;;36.73;24.07;;;6.20;99.90;;;;;;639085;224;26595;-78
2022/01/14 08:31:53;;;;;;;38.83;21.33;;;6.00;99.90;;;;;;637312;224;26599;-78
2022/01/14 08:34:21;;;;;;;36.67;23.33;;;6.00;99.90;;;;;;645491;220;26564;-77
2022/01/14 08:36:47;;;;;;;43.63;22.67;;;5.90;99.90;;;;;;639923;224;26552;-78
2022/01/14 08:39:14;;;;;;;40.77;24.10;;;6.10;99.90;;;;;;642609;222;26814;-78
2022/01/14 08:41:41;;;;;;;38.17;23.60;;;6.30;99.90;;;;;;646752;222;26595;-78
2022/01/14 08:44:11;;;;;;;39.40;22.17;;;6.30;99.90;;;;;;638369;224;26593;-78
2022/01/14 08:46:37;;;;;;;45.10;23.70;;;6.30;99.90;;;;;;641369;218;26519;-77
2022/01/14 08:49:04;;;;;;;46.33;23.10;;;6.30;99.90;;;;;;639040;223;26583;-78
2022/01/14 08:51:31;;;;;;;43.70;22.70;;;6.10;99.90;;;;;;640222;219;26968;-79
2022/01/14 08:54:02;;;;;;;36.27;23.30;;;6.20;99.90;;;;;;637432;223;26586;-77
2022/01/14 08:56:26;;;;;;;41.90;24.10;;;6.40;99.90;;;;;;638296;224;26871;-77
2022/01/14 08:58:53;;;;;;;35.97;22.70;;;6.20;99.90;;;;;;640096;221;26635;-80
2022/01/14 09:01:20;;;;;;;46.30;24.33;;;6.00;99.90;;;;;;639096;224;26828;-79
2022/01/14 09:03:47;;;;;;;42.43;24.80;;;6.00;99.90;;;;;;641867;222;26550;-80
2022/01/14 09:06:15;;;;;;;43.67;24.97;;;6.00;99.90;;;;;;646335;217;26793;-77
2022/01/14 09:08:42;;;;;;;38.40;23.37;;;6.10;99.90;;;;;;640422;223;26557;-77
2022/01/14 09:11:09;;;;;;;44.67;25.60;;;6.20;99.90;;;;;;642281;222;26830;-77
2022/01/14 09:13:37;;;;;;;40.53;23.63;;;6.10;99.90;;;;;;640152;222;26580;-77
2022/01/14 09:16:04;;;;;;;40.00;23.60;;;6.10;99.90;;;;;;639914;222;26580;-77
2022/01/14 09:18:32;;;;;;;39.47;22.67;;;6.00;99.90;;;;;;644707;222;26572;-76
2022/01/14 09:20:59;;;;;;;47.87;23.37;;;6.10;99.90;;;;;;637799;221;26805;-77
2022/01/14 09:23:27;;;;;;;41.60;23.13;;;6.10;99.90;;;;;;639234;224;26562;-77
2022/01/14 09:25:53;;;;;;;39.33;22.67;;;6.50;99.90;;;;;;637851;224;26803;-77
2022/01/14 09:28:20;;;;;;;47.57;24.03;;;6.30;99.90;;;;;;642605;222;26567;-76
2022/01/14 09:30:47;;;;;;;42.53;23.63;;;6.30;99.90;;;;;;639339;224;26818;-76
2022/01/14 09:33:17;;;;;;;34.67;22.07;;;6.30;99.90;;;;;;637115;224;26573;-75
2022/01/14 09:35:42;;;;;;;40.70;22.80;;;6.30;99.90;;;;;;637076;225;26768;-74
2022/01/14 09:38:10;;;;;;;44.03;24.00;;;6.30;99.90;;;;;;646052;222;26571;-74
2022/01/14 09:40:38;;;;;;;43.37;23.47;;;6.20;99.90;;;;;;644565;222;26579;-74
2022/01/14 09:43:06;;;;;;;37.60;21.83;;;6.40;99.90;;;;;;636835;225;26571;-74
2022/01/14 09:45:35;;;;;;;40.80;22.07;;;6.40;99.90;;;;;;645039;221;26585;-75
2022/01/14 09:48:02;;;;;;;42.00;22.43;;;6.60;99.90;;;;;;642883;221;26691;-74
2022/01/14 09:50:29;;;;;;;37.37;21.00;;;6.60;99.90;;;;;;640717;222;26594;-74
2022/01/14 09:52:56;;;;;;;36.97;22.77;;;6.40;99.90;;;;;;638028;223;26559;-72
2022/01/14 09:55:24;;;;;;;41.80;22.93;;;6.50;99.90;;;;;;637721;224;26781;-73
2022/01/14 09:57:54;;;;;;;34.33;20.10;;;6.50;99.90;;;;;;638299;224;26502;-72
2022/01/14 10:00:18;;;;;;;32.40;19.03;;;6.60;99.90;;;;;;638674;221;26539;-73
2022/01/14 10:02:46;;;;;;;27.53;18.17;;;6.70;99.90;;;;;;637525;225;26824;-73
2022/01/14 10:05:25;;;;;;;29.33;18.30;;;6.50;99.90;;;;;;638542;224;26580;-73
2022/01/14 10:07:52;;;;;;;29.27;17.60;;;6.40;99.90;;;;;;638293;222;26939;-73
2022/01/14 10:10:22;;;;;;;34.77;19.93;;;6.50;99.90;;;;;;646188;221;26559;-73
2022/01/14 10:12:48;;;;;;;31.20;18.30;;;6.40;99.90;;;;;;639507;224;26564;-72
2022/01/14 10:15:15;;;;;;;34.53;18.53;;;6.60;99.90;;;;;;637213;224;26823;-73
2022/01/14 10:17:42;;;;;;;33.10;18.33;;;6.70;99.90;;;;;;640325;222;26794;-72
2022/01/14 10:20:10;;;;;;;30.90;18.10;;;6.60;99.90;;;;;;638287;222;26847;-73
2022/01/14 10:22:40;;;;;;;29.33;16.30;;;6.70;99.90;;;;;;643396;222;26804;-73
2022/01/14 10:25:08;;;;;;;34.60;17.87;;;6.60;99.90;;;;;;647173;222;26570;-73
2022/01/14 10:27:39;;;;;;;30.53;19.30;;;6.50;99.90;;;;;;640428;222;26584;-72
2022/01/14 10:30:11;;;;;;;30.37;17.63;;;6.50;99.90;;;;;;638796;222;26802;-73
2022/01/14 10:32:40;;;;;;;30.07;19.67;;;6.60;99.90;;;;;;639567;224;26515;-73
2022/01/14 10:35:07;;;;;;;32.00;17.83;;;6.50;99.90;;;;;;638594;219;26579;-73
2022/01/14 10:37:34;;;;;;;30.30;18.23;;;6.50;99.90;;;;;;638170;224;26822;-73
2022/01/14 10:40:05;;;;;;;29.43;18.13;;;6.40;99.90;;;;;;645376;222;26634;-73
2022/01/14 10:42:33;;;;;;;32.50;19.20;;;6.40;99.90;;;;;;640960;222;26541;-73
2022/01/14 10:45:09;;;;;;;32.17;19.60;;;6.60;99.90;;;;;;646991;221;26786;-73
2022/01/14 10:47:36;;;;;;;29.27;16.47;;;6.70;99.90;;;;;;640307;222;27220;-73
2022/01/14 10:50:04;;;;;;;29.03;17.40;;;6.80;99.90;;;;;;639814;224;26539;-73
2022/01/14 10:52:31;;;;;;;22.80;15.20;;;6.70;99.90;;;;;;639207;222;26872;-73
2022/01/14 10:54:58;;;;;;;32.43;16.97;;;6.60;99.90;;;;;;644489;222;26575;-73
2022/01/14 10:57:25;;;;;;;25.80;16.23;;;6.80;99.90;;;;;;640022;222;27303;-73
2022/01/14 10:59:53;;;;;;;29.43;16.50;;;7.00;99.90;;;;;;645295;222;26580;-73
2022/01/14 11:02:31;;;;;;;25.50;15.57;;;7.10;99.90;;;;;;638099;221;26559;-73
2022/01/14 11:05:06;;;;;;;29.33;15.17;;;6.80;99.90;;;;;;641218;222;26578;-73
2022/01/14 11:07:33;;;;;;;25.23;15.73;;;6.80;99.90;;;;;;641314;221;26540;-73
2022/01/14 11:10:00;;;;;;;25.40;15.80;;;6.90;99.90;;;;;;637569;221;26523;-73
2022/01/14 11:12:29;;;;;;;27.97;15.83;;;7.00;99.90;;;;;;640302;223;26824;-74
2022/01/14 11:14:55;;;;;;;22.47;14.67;;;7.00;99.90;;;;;;642823;222;26559;-73
2022/01/14 11:17:22;;;;;;;20.90;14.03;;;7.20;99.90;;;;;;639184;224;26797;-73
2022/01/14 11:19:49;;;;;;;26.57;15.80;;;7.10;99.90;;;;;;638145;222;26572;-76
2022/01/14 11:24:49;;;;;;;23.97;14.30;;;7.00;99.90;;;;;;636921;225;26597;-75
2022/01/14 11:27:17;;;;;;;27.30;13.47;;;7.10;99.90;;;;;;636976;224;26554;-74
2022/01/14 11:29:45;;;;;;;20.77;14.07;;;7.20;99.90;;;;;;637492;225;26545;-74
2022/01/14 11:32:12;;;;;;;19.33;12.77;;;7.20;99.90;;;;;;637373;225;26582;-74
2022/01/14 11:34:42;;;;;;;26.07;14.10;;;7.00;99.90;;;;;;637348;225;26549;-74
2022/01/14 11:37:07;;;;;;;22.60;14.13;;;7.00;99.90;;;;;;637335;225;26543;-74
2022/01/14 11:39:36;;;;;;;20.97;14.37;;;6.90;99.90;;;;;;637523;226;26541;-74
2022/01/14 11:42:04;;;;;;;25.50;14.33;;;7.00;99.90;;;;;;637511;224;26573;-74
2022/01/14 11:44:46;;;;;;;18.57;13.50;;;6.90;99.90;;;;;;639534;221;26763;-74
2022/01/14 11:47:23;;;;;;;20.73;13.83;;;7.30;99.90;;;;;;640305;222;26539;-74
2022/01/14 11:49:50;;;;;;;24.70;13.60;;;7.40;99.90;;;;;;644376;221;26542;-74
2022/01/14 11:52:18;;;;;;;19.83;13.30;;;7.30;99.90;;;;;;646112;222;26860;-75
2022/01/14 11:54:46;;;;;;;29.63;13.60;;;7.40;99.90;;;;;;639960;221;26541;-74
2022/01/14 11:57:14;;;;;;;19.33;12.43;;;7.30;99.90;;;;;;643401;221;26847;-74
2022/01/14 11:59:42;;;;;;;19.50;13.13;;;7.10;99.90;;;;;;639230;221;26545;-75
2022/01/14 12:02:35;;;;;;;22.27;13.07;;;7.00;99.90;;;;;;639573;224;26556;-73
2022/01/14 12:05:02;;;;;;;23.03;13.53;;;7.00;99.90;;;;;;643635;222;26494;-74
2022/01/14 12:07:30;;;;;;;25.20;15.23;;;7.00;99.90;;;;;;639992;222;26536;-73
2022/01/14 12:09:58;;;;;;;20.60;13.17;;;7.10;99.90;;;;;;640924;221;26560;-73
2022/01/14 12:12:30;;;;;;;20.13;14.23;;;7.10;99.90;;;;;;647107;222;26808;-73
2022/01/14 12:14:58;;;;;;;22.47;13.87;;;7.10;99.90;;;;;;638387;224;26542;-74
2022/01/14 12:17:32;;;;;;;24.77;13.73;;;7.00;99.90;;;;;;640418;222;26562;-74
2022/01/14 12:20:10;;;;;;;20.87;13.90;;;7.00;99.90;;;;;;642639;221;26579;-74
2022/01/14 12:22:38;;;;;;;23.07;14.13;;;7.00;99.90;;;;;;648215;221;26536;-73
2022/01/14 12:25:06;;;;;;;21.00;14.50;;;7.00;99.90;;;;;;641447;222;26514;-74
2022/01/14 12:27:42;;;;;;;23.93;14.23;;;7.00;99.90;;;;;;640019;222;26561;-73
2022/01/14 12:30:06;;;;;;;23.70;13.10;;;7.00;99.90;;;;;;642097;221;26792;-73
2022/01/14 12:32:33;;;;;;;20.97;13.77;;;7.10;99.90;;;;;;645412;221;26486;-74
2022/01/14 12:35:03;;;;;;;21.17;12.90;;;7.10;99.90;;;;;;648988;221;26725;-74
2022/01/14 12:37:32;;;;;;;19.73;12.30;;;7.20;99.90;;;;;;642585;221;26541;-73
2022/01/14 12:40:03;;;;;;;20.33;12.00;;;7.30;99.90;;;;;;637103;222;26616;-73
2022/01/14 12:42:31;;;;;;;20.87;12.40;;;7.20;99.90;;;;;;645565;222;26564;-73
2022/01/14 12:45:00;;;;;;;21.30;13.13;;;7.20;99.90;;;;;;638706;222;26576;-74
2022/01/14 12:47:27;;;;;;;19.83;10.87;;;7.10;99.90;;;;;;638456;224;26569;-73
2022/01/14 12:49:55;;;;;;;22.00;12.87;;;7.10;99.90;;;;;;641741;222;26557;-73
2022/01/14 12:52:37;;;;;;;24.83;12.00;;;7.10;99.90;;;;;;637929;224;26586;-74
2022/01/14 12:54:50;;;;;;;19.97;12.00;;;7.10;99.90;;;;;;645393;221;26565;-73
2022/01/14 12:57:17;;;;;;;20.20;12.90;;;7.00;99.90;;;;;;637850;221;26600;-73
2022/01/14 12:59:45;;;;;;;16.83;11.47;;;7.00;99.90;;;;;;643698;222;26907;-73
2022/01/14 13:02:18;;;;;;;19.27;12.27;;;7.10;99.90;;;;;;638450;222;26576;-73